Time;durP1;ratioP1;P1;durP2;ratioP2;P2;SDS_P1;SDS_P2;PMS_P1;PMS_P2;Temp;Humidity;BMP_temperature;BMP_pressure;BME280_temperature;BME280_humidity;BME280_pressure;Samples;Min_cycle;Max_cycle;Signal;HPM_P1;HPM_P2
2022/06/04 00:02:05;;;;;;;4.72;2.17;;;20.00;93.40;;;;;;5092752;28;20032;-72
2022/06/04 00:04:31;;;;;;;3.00;1.88;;;20.10;92.90;;;;;;5093620;28;20074;-72
2022/06/04 00:06:57;;;;;;;6.20;2.20;;;20.10;92.60;;;;;;5094132;28;20024;-72
2022/06/04 00:09:26;;;;;;;4.93;2.00;;;20.00;91.90;;;;;;5093680;28;20468;-72
2022/06/04 00:17:24;;;;;;;10.07;1.80;;;19.30;93.60;;;;;;5072315;28;20047;-72
2022/06/04 00:19:50;;;;;;;10.02;2.35;;;19.20;93.40;;;;;;5092455;28;20020;-72
2022/06/04 00:22:17;;;;;;;4.50;1.77;;;19.10;93.90;;;;;;5093701;28;20035;-72
2022/06/04 00:24:44;;;;;;;4.57;1.75;;;19.00;94.00;;;;;;5093585;28;20129;-72
2022/06/04 00:27:20;;;;;;;4.68;1.92;;;19.00;94.20;;;;;;5093954;28;20032;-73
2022/06/04 00:29:46;;;;;;;7.18;2.10;;;18.90;94.00;;;;;;5093190;28;20044;-72
2022/06/04 00:32:13;;;;;;;4.32;1.83;;;18.90;94.30;;;;;;5093544;28;20076;-72
2022/06/04 00:34:39;;;;;;;6.78;1.92;;;18.90;94.60;;;;;;5081015;28;20026;-72
2022/06/04 00:37:04;;;;;;;8.82;2.35;;;19.10;94.60;;;;;;5090759;28;20491;-73
2022/06/04 00:39:31;;;;;;;7.15;1.58;;;19.10;94.60;;;;;;5093287;28;20036;-73
2022/06/04 00:42:10;;;;;;;5.55;2.00;;;19.10;94.30;;;;;;5093147;28;20039;-72
2022/06/04 00:45:09;;;;;;;6.43;2.10;;;19.00;94.70;;;;;;5093044;28;20432;-73
2022/06/04 00:47:36;;;;;;;10.30;2.42;;;18.90;94.20;;;;;;5093058;28;20036;-72
2022/06/04 00:50:05;;;;;;;7.28;2.22;;;19.00;93.60;;;;;;5092264;28;20055;-73
2022/06/04 00:52:32;;;;;;;4.80;2.00;;;19.10;93.40;;;;;;5091911;28;20024;-72
2022/06/04 00:54:59;;;;;;;7.07;2.00;;;18.90;93.90;;;;;;5092983;28;20027;-72
2022/06/04 00:57:43;;;;;;;9.32;2.55;;;19.00;94.00;;;;;;5093169;28;20027;-72
2022/06/04 01:00:20;;;;;;;8.07;2.20;;;19.00;94.10;;;;;;5092749;28;20039;-72
2022/06/04 01:03:04;;;;;;;7.35;2.45;;;19.00;93.80;;;;;;5092936;28;20468;-73
2022/06/04 01:05:57;;;;;;;7.22;2.45;;;18.70;94.40;;;;;;5091849;28;20054;-72
2022/06/04 01:08:35;;;;;;;6.85;2.50;;;18.70;95.00;;;;;;5060117;28;20036;-72
2022/06/04 01:11:16;;;;;;;4.18;2.60;;;18.50;95.80;;;;;;5089170;28;20028;-73
2022/06/04 01:14:03;;;;;;;4.95;2.22;;;18.60;95.40;;;;;;5092668;28;20027;-72
2022/06/04 01:16:38;;;;;;;8.98;2.60;;;18.50;95.90;;;;;;5092749;28;20469;-73
2022/06/04 01:19:25;;;;;;;8.57;2.22;;;18.60;95.80;;;;;;5092923;28;20028;-72
2022/06/04 01:22:22;;;;;;;3.90;2.17;;;18.90;95.30;;;;;;5075608;28;20492;-72
2022/06/04 01:25:05;;;;;;;8.65;2.65;;;18.90;94.90;;;;;;5092386;28;20061;-72
2022/06/04 01:27:55;;;;;;;7.05;2.80;;;18.70;95.60;;;;;;5096353;28;20040;-73
2022/06/04 01:30:29;;;;;;;3.20;2.00;;;18.50;96.40;;;;;;5095881;28;20110;-72
2022/06/04 01:33:05;;;;;;;6.30;2.97;;;18.50;96.70;;;;;;5096544;28;20032;-72
2022/06/04 01:35:34;;;;;;;8.93;2.50;;;18.70;95.60;;;;;;5082313;28;20415;-72
2022/06/04 01:38:11;;;;;;;6.32;2.13;;;18.70;95.70;;;;;;5096903;28;20081;-72
2022/06/04 01:41:06;;;;;;;5.82;2.58;;;18.50;96.10;;;;;;5096658;28;20445;-72
2022/06/04 01:43:51;;;;;;;5.82;2.13;;;18.40;95.50;;;;;;5095069;28;20069;-72
2022/06/04 01:46:19;;;;;;;6.43;2.38;;;18.10;96.90;;;;;;5096597;28;20020;-72
2022/06/04 01:48:49;;;;;;;6.28;2.28;;;18.00;97.40;;;;;;5095778;28;20043;-72
2022/06/04 01:51:20;;;;;;;8.52;2.55;;;17.80;98.00;;;;;;5096280;28;20046;-72
2022/06/04 01:53:50;;;;;;;6.45;2.67;;;17.80;98.20;;;;;;5096650;28;20362;-72
2022/06/04 01:56:24;;;;;;;5.00;2.47;;;17.90;98.30;;;;;;5096013;28;20387;-72
2022/06/04 01:59:05;;;;;;;7.88;2.75;;;18.00;98.40;;;;;;5096453;28;20503;-72
2022/06/04 02:01:33;;;;;;;4.10;2.33;;;17.90;98.70;;;;;;5096280;28;20032;-72
2022/06/04 02:04:01;;;;;;;3.30;2.05;;;17.70;99.20;;;;;;5096002;28;20442;-72
2022/06/04 02:07:29;;;;;;;4.80;2.45;;;17.80;99.60;;;;;;5094913;28;20032;-72
2022/06/04 02:09:38;;;;;;;17.33;4.47;;;17.60;99.60;;;;;;5096033;28;20039;-72
2022/06/04 02:12:07;;;;;;;6.85;2.42;;;17.50;99.90;;;;;;5095901;28;20020;-72
2022/06/04 02:14:33;;;;;;;5.88;2.25;;;17.60;99.80;;;;;;5085251;28;20024;-72
2022/06/04 02:17:06;;;;;;;3.20;2.20;;;17.50;99.60;;;;;;5096131;28;20039;-72
2022/06/04 02:19:32;;;;;;;11.18;2.50;;;17.50;99.90;;;;;;5095833;28;20038;-72
2022/06/04 02:21:58;;;;;;;5.18;2.53;;;17.50;99.60;;;;;;5096071;28;20090;-72
2022/06/04 02:24:24;;;;;;;6.30;2.40;;;17.40;99.90;;;;;;5095923;28;20058;-72
2022/06/04 02:26:51;;;;;;;10.95;2.38;;;17.60;99.80;;;;;;5094183;28;20028;-72
2022/06/04 02:29:19;;;;;;;6.13;2.42;;;17.40;99.50;;;;;;5094646;28;20120;-72
2022/06/04 02:32:03;;;;;;;10.05;2.42;;;17.30;99.50;;;;;;5095651;28;20028;-72
2022/06/04 02:34:55;;;;;;;6.03;2.78;;;17.30;99.60;;;;;;5084849;28;20051;-72
2022/06/04 02:37:30;;;;;;;5.63;2.17;;;17.40;99.70;;;;;;5093848;28;20031;-73
2022/06/04 02:40:10;;;;;;;7.90;2.75;;;17.40;99.40;;;;;;5095581;28;20028;-72
2022/06/04 02:42:43;;;;;;;5.10;2.40;;;17.30;99.60;;;;;;5081782;28;20384;-72
2022/06/04 02:45:13;;;;;;;7.85;2.50;;;17.30;99.50;;;;;;5090953;28;20075;-72
2022/06/04 02:47:50;;;;;;;9.75;3.17;;;17.10;99.90;;;;;;5075012;28;20103;-72
2022/06/04 02:50:22;;;;;;;6.28;2.80;;;17.10;99.90;;;;;;5078421;28;20037;-72
2022/06/04 02:52:49;;;;;;;4.90;2.20;;;17.00;99.90;;;;;;5091224;28;20020;-72
2022/06/04 02:55:26;;;;;;;7.10;2.50;;;16.90;99.90;;;;;;5080835;28;20021;-72
2022/06/04 02:57:56;;;;;;;3.75;2.25;;;16.90;99.90;;;;;;5095267;28;20047;-72
2022/06/04 03:00:25;;;;;;;6.28;2.50;;;16.80;99.90;;;;;;5095330;28;20062;-72
2022/06/04 03:02:51;;;;;;;5.57;2.30;;;16.80;99.90;;;;;;5086500;28;20484;-72
2022/06/04 03:05:24;;;;;;;8.05;2.50;;;16.80;99.90;;;;;;5095072;28;20046;-72
2022/06/04 03:07:56;;;;;;;6.47;2.47;;;16.80;99.90;;;;;;5093603;28;20467;-72
2022/06/04 03:10:29;;;;;;;4.88;2.53;;;16.60;99.90;;;;;;5094990;28;20448;-72
2022/06/04 03:12:56;;;;;;;5.13;2.70;;;16.60;99.90;;;;;;5093847;28;20085;-72
2022/06/04 03:15:22;;;;;;;5.65;2.45;;;16.60;99.90;;;;;;5095049;28;20136;-72
2022/06/04 03:17:48;;;;;;;8.48;2.33;;;16.80;99.90;;;;;;5076667;28;20384;-72
2022/06/04 03:20:22;;;;;;;6.18;2.50;;;16.70;99.90;;;;;;5083508;28;20071;-72
2022/06/04 03:22:48;;;;;;;4.05;2.05;;;16.60;99.90;;;;;;5092531;28;20024;-72
2022/06/04 03:25:14;;;;;;;7.35;2.70;;;16.70;99.90;;;;;;5094582;28;20036;-72
2022/06/04 03:27:40;;;;;;;7.40;2.20;;;16.60;99.90;;;;;;5094553;28;20142;-72
2022/06/04 03:30:07;;;;;;;4.43;2.25;;;16.60;99.90;;;;;;5094611;28;20035;-72
2022/06/04 03:32:33;;;;;;;8.35;2.80;;;16.40;99.90;;;;;;5094505;28;20040;-72
2022/06/04 03:34:58;;;;;;;7.70;2.67;;;16.30;99.90;;;;;;5093267;28;20039;-72
2022/06/04 03:37:24;;;;;;;5.63;2.75;;;16.40;99.90;;;;;;5094071;28;20465;-72
2022/06/04 03:39:50;;;;;;;7.25;2.80;;;16.50;99.90;;;;;;5094393;28;20032;-72
2022/06/04 03:42:16;;;;;;;6.75;3.33;;;16.50;99.90;;;;;;5094423;28;20020;-72
2022/06/04 03:44:46;;;;;;;10.68;3.50;;;16.70;99.90;;;;;;5094286;28;20028;-72
2022/06/04 03:47:14;;;;;;;8.07;2.88;;;17.00;99.90;;;;;;5094115;28;20020;-72
2022/06/04 03:49:40;;;;;;;5.72;2.22;;;16.90;99.70;;;;;;5086082;28;20029;-72
2022/06/04 03:52:06;;;;;;;7.00;2.78;;;16.70;99.90;;;;;;5094056;28;20468;-72
2022/06/04 04:00:01;;;;;;;7.97;2.75;;;16.20;99.90;;;;;;5093818;28;20039;-72
2022/06/04 04:02:27;;;;;;;8.60;2.60;;;16.30;99.90;;;;;;5094071;28;20396;-72
2022/06/04 04:04:53;;;;;;;5.38;2.28;;;16.20;99.90;;;;;;5093577;28;20492;-72
2022/06/04 04:07:19;;;;;;;5.65;2.50;;;16.20;99.90;;;;;;5093676;28;20054;-72
2022/06/04 04:09:45;;;;;;;5.57;2.40;;;16.20;99.90;;;;;;5093883;28;20032;-72
2022/06/04 04:12:10;;;;;;;6.13;2.88;;;16.40;99.90;;;;;;5093623;28;20497;-72
2022/06/04 04:14:36;;;;;;;7.57;2.67;;;16.50;99.90;;;;;;5092499;28;20024;-72
2022/06/04 04:17:02;;;;;;;4.32;2.30;;;16.50;99.90;;;;;;5092481;28;20039;-72
2022/06/04 04:19:31;;;;;;;4.60;2.50;;;16.60;99.90;;;;;;5093901;28;20590;-72
2022/06/04 04:21:57;;;;;;;5.07;2.45;;;16.70;99.90;;;;;;5093461;28;20593;-72
2022/06/04 04:24:23;;;;;;;4.38;2.38;;;16.70;99.90;;;;;;5093723;28;20024;-72
2022/06/04 04:26:49;;;;;;;7.53;2.90;;;16.70;99.80;;;;;;5092474;28;20039;-72
2022/06/04 04:29:14;;;;;;;10.18;2.50;;;16.70;99.60;;;;;;5093178;28;20535;-72
2022/06/04 04:31:40;;;;;;;7.03;2.88;;;16.60;99.90;;;;;;5094438;28;20020;-72
2022/06/04 04:34:06;;;;;;;8.32;2.92;;;16.30;99.90;;;;;;5093564;28;20093;-72
2022/06/04 04:36:32;;;;;;;5.80;2.22;;;16.20;99.90;;;;;;5093019;28;20028;-72
2022/06/04 04:38:59;;;;;;;7.47;2.70;;;16.10;99.90;;;;;;5091979;28;20036;-72
2022/06/04 04:41:25;;;;;;;10.65;2.60;;;16.10;99.90;;;;;;5093318;28;20043;-72
2022/06/04 04:43:51;;;;;;;9.32;3.83;;;16.30;99.90;;;;;;5093219;28;20077;-72
2022/06/04 04:46:18;;;;;;;5.40;2.30;;;16.40;99.90;;;;;;5093323;28;20024;-72
2022/06/04 04:48:46;;;;;;;5.93;2.20;;;16.10;99.90;;;;;;5091598;28;20067;-72
2022/06/04 04:51:21;;;;;;;6.05;2.50;;;16.20;99.90;;;;;;5089788;28;20088;-73
2022/06/04 04:53:48;;;;;;;6.40;2.60;;;16.10;99.90;;;;;;5086457;28;20063;-73
2022/06/04 04:56:15;;;;;;;5.30;2.67;;;15.90;99.90;;;;;;5085717;28;20396;-73
2022/06/04 04:58:41;;;;;;;5.50;2.65;;;16.00;99.90;;;;;;5092907;28;20020;-72
2022/06/04 05:01:14;;;;;;;7.82;2.60;;;16.20;99.90;;;;;;5092765;28;20548;-72
2022/06/04 05:03:40;;;;;;;8.55;2.92;;;16.30;99.90;;;;;;5092704;28;20593;-71
2022/06/04 05:06:05;;;;;;;5.10;2.65;;;16.30;99.90;;;;;;5092473;28;20028;-71
2022/06/04 05:08:32;;;;;;;6.35;2.53;;;16.30;99.90;;;;;;5092809;28;20132;-72
2022/06/04 05:11:08;;;;;;;12.05;2.65;;;16.60;99.90;;;;;;5092774;28;20046;-72
2022/06/04 05:13:34;;;;;;;5.70;2.70;;;16.60;99.90;;;;;;5092609;28;20476;-72
2022/06/04 05:16:00;;;;;;;8.55;3.00;;;16.60;99.90;;;;;;5091562;28;20055;-72
2022/06/04 05:18:26;;;;;;;6.80;2.92;;;16.80;99.90;;;;;;5092604;28;20074;-71
2022/06/04 05:20:52;;;;;;;7.30;2.92;;;16.90;99.90;;;;;;5091405;28;20080;-72
2022/06/04 05:23:19;;;;;;;6.93;3.00;;;17.00;99.30;;;;;;5092895;28;20099;-71
2022/06/04 05:25:44;;;;;;;5.00;2.92;;;17.00;99.10;;;;;;5092443;28;20035;-72
2022/06/04 05:28:10;;;;;;;2.72;2.40;;;17.00;99.40;;;;;;5092657;28;20031;-71
2022/06/04 05:30:36;;;;;;;4.78;2.60;;;16.90;99.60;;;;;;5092488;28;20378;-72
2022/06/04 05:33:02;;;;;;;9.02;2.92;;;17.00;99.10;;;;;;5092266;28;20021;-71
2022/06/04 05:35:28;;;;;;;7.95;3.33;;;17.00;99.30;;;;;;5092726;28;20473;-71
2022/06/04 05:37:54;;;;;;;5.95;2.65;;;17.00;99.30;;;;;;5091150;28;20016;-72
2022/06/04 05:40:20;;;;;;;7.38;3.30;;;16.80;99.90;;;;;;5092596;28;20038;-72
2022/06/04 05:42:46;;;;;;;7.65;3.20;;;16.90;99.60;;;;;;5092532;28;20034;-71
2022/06/04 05:45:11;;;;;;;8.15;3.40;;;17.10;99.20;;;;;;5092574;28;20032;-72
2022/06/04 05:47:37;;;;;;;5.50;3.15;;;17.20;99.20;;;;;;5092019;28;20107;-71
2022/06/04 05:50:04;;;;;;;5.57;3.20;;;17.10;99.70;;;;;;5087591;28;20438;-71
2022/06/04 05:52:29;;;;;;;7.00;2.88;;;17.20;99.70;;;;;;5091315;28;20411;-71
2022/06/04 05:54:55;;;;;;;9.95;3.63;;;17.20;99.60;;;;;;5077970;28;20039;-71
2022/06/04 05:57:21;;;;;;;9.77;3.20;;;16.80;99.90;;;;;;5092393;28;20032;-74
2022/06/04 05:59:48;;;;;;;4.63;3.33;;;16.80;99.90;;;;;;5092537;28;20084;-71
2022/06/04 06:02:14;;;;;;;7.97;3.40;;;16.90;99.90;;;;;;5092053;28;20093;-71
2022/06/04 06:04:40;;;;;;;8.95;3.70;;;17.00;99.90;;;;;;5091092;28;20024;-71
2022/06/04 06:07:06;;;;;;;5.30;3.28;;;16.80;99.90;;;;;;5078419;28;20087;-71
2022/06/04 06:09:32;;;;;;;8.00;4.07;;;17.10;99.90;;;;;;5079560;28;20076;-71
2022/06/04 06:11:57;;;;;;;11.32;3.85;;;17.10;99.90;;;;;;5089987;28;20023;-71
2022/06/04 06:14:23;;;;;;;6.30;3.53;;;17.40;99.90;;;;;;5082614;28;20040;-71
2022/06/04 06:16:51;;;;;;;8.85;4.05;;;17.20;99.90;;;;;;5103343;28;20073;-72
2022/06/04 06:19:19;;;;;;;12.68;4.07;;;16.70;99.90;;;;;;5074664;28;20052;-71
2022/06/04 06:21:45;;;;;;;11.40;4.20;;;16.80;99.90;;;;;;5081532;28;20025;-71
2022/06/04 06:24:12;;;;;;;8.93;3.58;;;16.80;99.90;;;;;;5083172;28;20112;-71
2022/06/04 06:26:52;;;;;;;5.53;3.10;;;16.90;99.90;;;;;;5093138;28;20488;-71
2022/06/04 06:29:18;;;;;;;7.82;3.90;;;16.60;99.90;;;;;;5085605;28;20040;-71
2022/06/04 06:31:45;;;;;;;7.85;3.55;;;16.80;99.90;;;;;;5080418;28;20023;-71
2022/06/04 06:34:12;;;;;;;9.05;3.65;;;17.10;99.90;;;;;;5080872;28;20036;-72
2022/06/04 06:36:38;;;;;;;15.35;3.67;;;17.30;99.90;;;;;;5075670;28;20024;-71
2022/06/04 06:39:04;;;;;;;10.35;4.00;;;17.60;99.90;;;;;;5088881;28;20024;-71
2022/06/04 06:41:29;;;;;;;9.93;3.92;;;17.50;99.90;;;;;;5087278;28;20373;-71
2022/06/04 06:43:55;;;;;;;9.85;4.25;;;17.30;99.90;;;;;;5085479;28;20030;-72
2022/06/04 06:46:50;;;;;;;6.45;4.20;;;17.00;99.90;;;;;;5080258;28;20115;-71
2022/06/04 06:49:19;;;;;;;9.57;3.95;;;16.90;99.90;;;;;;5096142;28;20044;-71
2022/06/04 06:52:04;;;;;;;9.20;4.53;;;16.90;99.90;;;;;;5091800;28;20024;-71
2022/06/04 06:54:35;;;;;;;10.65;3.90;;;16.90;99.90;;;;;;5092174;28;20068;-71
2022/06/04 06:57:03;;;;;;;12.15;3.50;;;16.70;99.90;;;;;;5103716;28;20480;-71
2022/06/04 06:59:29;;;;;;;11.45;4.00;;;16.80;99.90;;;;;;5099065;28;20043;-72
2022/06/04 07:01:56;;;;;;;17.15;4.45;;;16.80;99.90;;;;;;5097237;28;20024;-72
2022/06/04 07:04:22;;;;;;;6.90;4.30;;;16.90;99.90;;;;;;5102187;28;20093;-72
2022/06/04 07:06:50;;;;;;;5.47;3.67;;;17.10;99.90;;;;;;5103647;28;20039;-71
2022/06/04 07:09:29;;;;;;;9.02;4.18;;;17.20;99.90;;;;;;5094430;28;20488;-71
2022/06/04 07:11:56;;;;;;;10.65;4.72;;;17.40;99.90;;;;;;5078246;28;20093;-72
2022/06/04 07:14:25;;;;;;;8.35;4.25;;;17.30;99.90;;;;;;5076244;28;20324;-72
2022/06/04 07:16:53;;;;;;;9.02;4.25;;;17.10;99.90;;;;;;5095403;28;20439;-72
2022/06/04 07:19:21;;;;;;;8.85;3.92;;;16.80;99.90;;;;;;5090506;28;20029;-71
2022/06/04 07:21:47;;;;;;;10.15;4.28;;;17.20;99.90;;;;;;5087093;28;20037;-72
2022/06/04 07:24:13;;;;;;;12.13;4.95;;;17.30;99.90;;;;;;5084854;28;20047;-72
2022/06/04 07:26:41;;;;;;;12.77;4.30;;;17.60;99.90;;;;;;5101332;28;20032;-71
2022/06/04 07:29:07;;;;;;;9.80;4.50;;;17.60;99.90;;;;;;5099743;28;20055;-71
2022/06/04 07:31:33;;;;;;;7.18;4.32;;;17.80;99.90;;;;;;5092908;28;20345;-72
2022/06/04 07:34:00;;;;;;;15.43;4.80;;;17.80;99.90;;;;;;5088912;28;20102;-71
2022/06/04 07:36:29;;;;;;;7.75;4.90;;;17.70;99.90;;;;;;5075237;28;20467;-72
2022/06/04 07:38:56;;;;;;;12.90;4.90;;;17.80;99.90;;;;;;5103220;28;20038;-72
2022/06/04 07:41:25;;;;;;;16.40;4.22;;;18.00;99.90;;;;;;5086469;28;20060;-71
2022/06/04 07:43:51;;;;;;;12.52;4.50;;;18.00;99.90;;;;;;5094531;28;20283;-72
2022/06/04 07:46:17;;;;;;;9.40;4.45;;;18.20;99.90;;;;;;5080565;28;20029;-72
2022/06/04 07:48:43;;;;;;;9.75;4.97;;;17.90;99.90;;;;;;5074984;28;20068;-71
2022/06/04 07:51:09;;;;;;;10.63;5.30;;;18.10;99.90;;;;;;5099467;28;20064;-71
2022/06/04 07:53:35;;;;;;;12.25;4.97;;;18.30;99.90;;;;;;5093129;28;20032;-72
2022/06/04 07:56:09;;;;;;;10.70;4.75;;;18.70;99.90;;;;;;5107650;28;20012;-72
2022/06/04 07:58:35;;;;;;;15.43;5.07;;;19.10;99.90;;;;;;5099909;28;20077;-72
2022/06/04 08:01:03;;;;;;;7.78;4.50;;;19.20;99.90;;;;;;5095627;28;20073;-71
2022/06/04 08:03:30;;;;;;;14.30;5.40;;;18.90;99.90;;;;;;5093769;28;20472;-72
2022/06/04 08:05:56;;;;;;;12.52;5.10;;;18.30;99.90;;;;;;5109510;28;20026;-72
2022/06/04 08:08:22;;;;;;;11.70;5.60;;;18.60;99.90;;;;;;5104631;28;20396;-72
2022/06/04 08:10:49;;;;;;;9.10;5.28;;;18.70;99.90;;;;;;5097867;28;20020;-71
2022/06/04 08:13:31;;;;;;;7.57;4.97;;;19.20;99.90;;;;;;5095503;28;20060;-72
2022/06/04 08:16:03;;;;;;;13.23;5.22;;;19.70;99.90;;;;;;5079737;28;20086;-72
2022/06/04 08:18:28;;;;;;;13.77;5.07;;;19.70;99.90;;;;;;5091976;28;20059;-72
2022/06/04 08:20:54;;;;;;;13.98;5.35;;;20.00;99.60;;;;;;5093585;28;20048;-72
2022/06/04 08:23:20;;;;;;;9.45;5.00;;;20.20;99.60;;;;;;5093833;28;20035;-72
2022/06/04 08:25:51;;;;;;;11.77;5.13;;;20.30;99.30;;;;;;5092240;28;20017;-71
2022/06/04 08:28:18;;;;;;;13.88;4.95;;;20.30;98.30;;;;;;5093268;28;20063;-72
2022/06/04 08:30:45;;;;;;;12.57;5.10;;;20.00;98.80;;;;;;5092582;28;20028;-71
2022/06/04 08:33:11;;;;;;;9.85;5.03;;;19.90;98.70;;;;;;5090902;28;20023;-72
2022/06/04 08:35:37;;;;;;;7.95;4.65;;;19.60;99.50;;;;;;5092517;28;20066;-71
2022/06/04 08:38:03;;;;;;;9.50;5.55;;;19.40;99.80;;;;;;5093598;28;20024;-72
2022/06/04 08:40:35;;;;;;;14.90;5.15;;;19.70;99.80;;;;;;5093334;28;20047;-72
2022/06/04 08:43:12;;;;;;;18.63;6.45;;;19.60;99.90;;;;;;5092880;28;20073;-72
2022/06/04 08:45:39;;;;;;;24.55;5.78;;;20.10;99.20;;;;;;5093167;28;20039;-72
2022/06/04 08:48:14;;;;;;;10.75;5.55;;;20.00;99.60;;;;;;5093341;28;20059;-72
2022/06/04 08:50:40;;;;;;;11.75;6.05;;;20.10;99.10;;;;;;5093257;28;20026;-72
2022/06/04 08:53:11;;;;;;;10.27;5.07;;;20.20;99.40;;;;;;5092140;28;20470;-72
2022/06/04 08:58:47;;;;;;;11.35;6.05;;;21.00;98.30;;;;;;5089287;28;20139;-72
2022/06/04 09:01:29;;;;;;;16.60;6.15;;;21.20;97.30;;;;;;5072312;28;20564;-72
2022/06/04 09:04:04;;;;;;;11.05;5.85;;;21.30;97.00;;;;;;5072784;28;20181;-72
2022/06/04 09:06:36;;;;;;;9.90;5.22;;;21.30;97.30;;;;;;5071352;28;20048;-72
2022/06/04 09:09:17;;;;;;;14.43;5.95;;;21.50;97.30;;;;;;5071516;28;20051;-72
2022/06/04 09:12:03;;;;;;;10.38;5.70;;;21.30;96.70;;;;;;5072103;28;20052;-72
2022/06/04 09:14:36;;;;;;;6.78;5.55;;;21.40;97.10;;;;;;5071611;28;20504;-72
2022/06/04 09:17:11;;;;;;;12.07;6.47;;;21.70;96.70;;;;;;5072530;28;20389;-72
2022/06/04 09:19:39;;;;;;;16.17;6.50;;;22.10;95.70;;;;;;5073175;28;20032;-72
2022/06/04 09:22:20;;;;;;;11.15;5.80;;;22.30;95.40;;;;;;5083489;28;20119;-72
2022/06/04 09:24:46;;;;;;;8.45;6.32;;;22.30;95.60;;;;;;5073041;28;20548;-72
2022/06/04 09:27:28;;;;;;;14.85;7.15;;;22.50;94.90;;;;;;5072041;28;20095;-73
2022/06/04 09:30:01;;;;;;;16.27;6.25;;;22.60;95.40;;;;;;5072709;28;20052;-73
2022/06/04 09:33:02;;;;;;;16.48;6.47;;;22.60;95.60;;;;;;5072154;28;20133;-73
2022/06/04 09:35:36;;;;;;;9.07;6.03;;;22.30;95.60;;;;;;5065587;28;20044;-73
2022/06/04 09:38:02;;;;;;;10.98;5.70;;;22.30;95.70;;;;;;5092618;28;20020;-73
2022/06/04 09:40:33;;;;;;;17.08;6.68;;;22.50;95.60;;;;;;5090044;28;20051;-73
2022/06/04 09:43:05;;;;;;;;;;;23.20;95.50;;;;;;5073117;28;20025;-73
2022/06/04 09:45:31;;;;;;;12.45;6.68;;;23.40;94.00;;;;;;5076067;28;20345;-72
2022/06/04 09:47:58;;;;;;;15.63;7.05;;;23.20;93.70;;;;;;5095276;28;20060;-73
2022/06/04 09:50:31;;;;;;;16.73;7.05;;;23.20;94.20;;;;;;5087801;28;20015;-71
2022/06/04 09:52:59;;;;;;;13.68;6.65;;;23.60;93.70;;;;;;5090901;28;20515;-73
2022/06/04 09:55:27;;;;;;;12.80;6.55;;;23.40;93.20;;;;;;5094855;28;20024;-72
2022/06/04 09:57:58;;;;;;;10.70;6.72;;;22.80;94.30;;;;;;5100588;28;20039;-73
2022/06/04 10:00:31;;;;;;;11.23;7.00;;;23.00;94.00;;;;;;5099203;28;20414;-73
2022/06/04 10:02:58;;;;;;;13.00;6.50;;;23.30;93.40;;;;;;5111804;28;20022;-73
2022/06/04 10:05:27;;;;;;;12.45;6.80;;;23.30;94.20;;;;;;5104759;28;20086;-73
2022/06/04 10:07:54;;;;;;;9.25;6.57;;;23.70;93.70;;;;;;5101863;28;20031;-73
2022/06/04 10:10:37;;;;;;;11.95;6.88;;;23.50;94.20;;;;;;5091699;28;20024;-73
2022/06/04 10:16:24;;;;;;;20.08;7.38;;;23.50;94.20;;;;;;5096241;28;20120;-72
2022/06/04 10:18:55;;;;;;;11.40;7.15;;;23.40;94.40;;;;;;5084636;28;20463;-73
2022/06/04 10:21:24;;;;;;;13.60;7.83;;;23.30;93.50;;;;;;5083059;28;20101;-73
2022/06/04 10:23:53;;;;;;;19.30;7.38;;;23.50;93.80;;;;;;5079843;28;20051;-72
2022/06/04 10:26:21;;;;;;;14.68;6.20;;;23.90;92.80;;;;;;5075911;28;20376;-72
2022/06/04 10:29:06;;;;;;;18.73;7.25;;;24.10;93.10;;;;;;5096887;28;20068;-72
2022/06/04 10:32:22;;;;;;;13.65;7.93;;;23.80;93.00;;;;;;5093710;28;20048;-72
2022/06/04 10:35:16;;;;;;;31.92;8.70;;;23.30;93.40;;;;;;5073476;28;20447;-72
2022/06/04 10:38:08;;;;;;;12.38;7.20;;;23.50;94.50;;;;;;5084074;28;20383;-72
2022/06/04 10:40:39;;;;;;;13.43;7.30;;;24.00;93.50;;;;;;5098052;28;20025;-72
2022/06/04 10:43:29;;;;;;;49.67;9.77;;;24.60;93.80;;;;;;5086888;28;20029;-72
2022/06/04 10:45:55;;;;;;;123.75;15.10;;;24.80;92.90;;;;;;5076565;28;20029;-72
2022/06/04 10:48:54;;;;;;;14.80;7.75;;;24.50;92.30;;;;;;5077769;28;20090;-72
2022/06/04 10:52:07;;;;;;;28.30;9.68;;;24.40;92.80;;;;;;5096194;28;20036;-72
2022/06/04 10:54:49;;;;;;;17.08;8.23;;;24.80;93.30;;;;;;5089045;28;20166;-72
2022/06/04 10:58:03;;;;;;;16.70;8.40;;;24.80;92.80;;;;;;5098507;28;20035;-72
2022/06/04 11:00:38;;;;;;;18.05;7.82;;;24.80;92.10;;;;;;5088357;28;20040;-72
2022/06/04 11:03:20;;;;;;;17.40;7.95;;;25.00;92.40;;;;;;5096440;28;20115;-72
2022/06/04 11:05:53;;;;;;;14.48;7.93;;;25.10;92.10;;;;;;5099114;28;20039;-72
2022/06/04 11:08:34;;;;;;;14.98;8.85;;;25.20;92.50;;;;;;5108885;28;20031;-72
2022/06/04 11:11:31;;;;;;;18.27;7.97;;;25.20;92.30;;;;;;5093588;28;20028;-72
2022/06/04 11:14:03;;;;;;;14.55;8.18;;;25.40;92.40;;;;;;5076770;28;20021;-72
2022/06/04 11:16:37;;;;;;;18.50;8.80;;;25.90;91.20;;;;;;5090139;28;20052;-72
2022/06/04 11:19:10;;;;;;;13.65;8.20;;;26.20;91.20;;;;;;5078659;28;20027;-72
2022/06/04 11:22:03;;;;;;;11.68;8.45;;;26.00;91.70;;;;;;5095595;28;20468;-72
2022/06/04 11:24:37;;;;;;;12.82;7.95;;;25.80;91.00;;;;;;5079663;28;20423;-72
2022/06/04 11:27:17;;;;;;;14.18;8.68;;;26.10;91.40;;;;;;5083826;28;20127;-72
2022/06/04 11:29:43;;;;;;;12.10;8.27;;;26.70;90.20;;;;;;5073492;28;20040;-72
2022/06/04 11:32:40;;;;;;;10.38;7.55;;;26.10;90.70;;;;;;5073847;28;20055;-72
2022/06/04 11:35:25;;;;;;;16.05;7.63;;;26.40;91.30;;;;;;5077152;28;20104;-72
2022/06/04 11:38:15;;;;;;;11.38;6.85;;;26.80;90.10;;;;;;5076062;28;20025;-72
2022/06/04 11:40:51;;;;;;;15.57;8.10;;;27.10;90.40;;;;;;5077912;28;20032;-72
2022/06/04 11:43:51;;;;;;;12.90;8.35;;;27.20;90.30;;;;;;5068397;28;20476;-72
2022/06/04 11:46:48;;;;;;;16.38;7.82;;;26.70;90.10;;;;;;5070407;28;20028;-72
2022/06/04 11:49:32;;;;;;;13.40;7.22;;;27.30;90.10;;;;;;5080490;28;20381;-72
2022/06/04 11:52:05;;;;;;;13.18;7.43;;;27.40;89.20;;;;;;5073001;28;20032;-72
2022/06/04 11:54:39;;;;;;;14.27;7.03;;;26.80;90.10;;;;;;5072756;28;20024;-72
2022/06/04 11:57:14;;;;;;;15.07;7.72;;;27.60;90.10;;;;;;5073395;28;20431;-72
2022/06/04 11:59:43;;;;;;;14.98;7.63;;;27.50;89.20;;;;;;5072227;28;20020;-73
2022/06/04 12:02:30;;;;;;;10.90;6.97;;;27.70;90.00;;;;;;5073196;28;20063;-73
2022/06/04 12:05:19;;;;;;;14.93;6.43;;;27.60;88.70;;;;;;5074437;28;20485;-73
2022/06/04 12:07:51;;;;;;;16.85;7.78;;;28.00;89.70;;;;;;5084428;28;20392;-73
2022/06/04 12:10:36;;;;;;;15.60;7.35;;;27.20;88.70;;;;;;5071494;28;20487;-73
2022/06/04 12:13:31;;;;;;;15.65;6.85;;;27.20;89.00;;;;;;5071691;28;20028;-73
2022/06/04 12:16:11;;;;;;;11.27;7.35;;;28.10;89.40;;;;;;5070332;28;20040;-73
2022/06/04 12:24:15;;;;;;;12.02;6.90;;;28.10;87.10;;;;;;5073090;28;20017;-73
2022/06/04 12:25:16;;;;;;;16.88;7.40;;;27.20;88.30;;;;;;5081831;28;20028;-73
2022/06/04 12:27:57;;;;;;;14.55;8.07;;;26.60;88.80;;;;;;5073168;28;20032;-73
2022/06/04 12:30:46;;;;;;;14.18;7.05;;;26.70;88.50;;;;;;5071852;28;20037;-72
2022/06/04 12:33:38;;;;;;;14.77;6.55;;;27.20;89.50;;;;;;5073196;28;20114;-73
2022/06/04 12:36:10;;;;;;;9.40;6.90;;;27.70;88.50;;;;;;5072669;28;20033;-73
2022/06/04 12:38:44;;;;;;;10.38;6.80;;;27.80;88.70;;;;;;5073193;28;20028;-73
2022/06/04 12:41:16;;;;;;;9.63;6.72;;;28.10;87.80;;;;;;5072600;28;20025;-73
2022/06/04 12:43:58;;;;;;;10.35;6.80;;;27.90;86.00;;;;;;5072881;28;20025;-73
2022/06/04 12:46:24;;;;;;;10.77;6.47;;;28.10;88.00;;;;;;5072834;28;20512;-73
2022/06/04 12:49:01;;;;;;;10.80;6.45;;;27.90;88.80;;;;;;5074744;28;20044;-73
2022/06/04 12:52:01;;;;;;;10.93;7.43;;;28.60;87.80;;;;;;5072465;28;20029;-73
2022/06/04 12:54:27;;;;;;;12.02;6.50;;;29.10;85.30;;;;;;5071434;28;20021;-73
2022/06/04 12:56:57;;;;;;;11.13;6.35;;;29.90;85.30;;;;;;5089353;28;20028;-73
2022/06/04 12:59:36;;;;;;;9.23;6.80;;;29.40;86.90;;;;;;5091896;28;20103;-73
2022/06/04 13:02:23;;;;;;;11.27;6.32;;;29.00;85.70;;;;;;5092837;28;20061;-73
2022/06/04 13:04:48;;;;;;;11.18;6.40;;;29.20;85.80;;;;;;5092671;28;20095;-73
2022/06/04 13:07:26;;;;;;;9.77;5.45;;;29.00;85.80;;;;;;5091881;28;20066;-73
2022/06/04 13:10:13;;;;;;;14.25;6.85;;;29.60;86.00;;;;;;5093153;28;20047;-73
2022/06/04 13:12:53;;;;;;;19.58;6.13;;;29.00;86.00;;;;;;5092850;28;20546;-73
2022/06/04 13:15:34;;;;;;;8.88;7.00;;;29.50;86.20;;;;;;5092680;28;20028;-73
2022/06/04 13:18:01;;;;;;;9.82;6.30;;;29.10;85.50;;;;;;5092573;28;20050;-73
2022/06/04 13:20:31;;;;;;;11.70;6.45;;;29.50;84.80;;;;;;5072701;28;20115;-73
2022/06/04 13:23:18;;;;;;;10.18;5.97;;;29.70;85.20;;;;;;5092662;28;20031;-72
2022/06/04 13:25:54;;;;;;;10.80;5.50;;;30.20;85.70;;;;;;5092718;28;20074;-72
2022/06/04 13:28:41;;;;;;;13.40;7.32;;;30.50;84.70;;;;;;5092686;28;20036;-72
2022/06/04 13:31:20;;;;;;;12.38;6.25;;;30.10;83.40;;;;;;5092328;28;20028;-73
2022/06/04 13:33:47;;;;;;;12.27;7.10;;;29.60;84.10;;;;;;5091209;28;20024;-73